sensor_id;sensor_type;location;lat;lon;timestamp;temperature;humidity
20750;DHT22;10535;50.664;4.564;2023-04-03T00:01:11;3.40;99.90
20750;DHT22;10535;50.664;4.564;2023-04-03T00:03:36;3.50;99.90
20750;DHT22;10535;50.664;4.564;2023-04-03T00:06:03;3.40;99.90
20750;DHT22;10535;50.664;4.564;2023-04-03T00:08:31;3.40;99.90
20750;DHT22;10535;50.664;4.564;2023-04-03T00:10:58;3.40;99.90
20750;DHT22;10535;50.664;4.564;2023-04-03T00:13:24;3.40;99.90
20750;DHT22;10535;50.664;4.564;2023-04-03T00:15:51;3.30;99.90
20750;DHT22;10535;50.664;4.564;2023-04-03T00:18:16;3.50;99.90
20750;DHT22;10535;50.664;4.564;2023-04-03T00:20:43;3.20;99.90
20750;DHT22;10535;50.664;4.564;2023-04-03T00:23:09;3.30;99.90
20750;DHT22;10535;50.664;4.564;2023-04-03T00:25:36;3.30;99.90
20750;DHT22;10535;50.664;4.564;2023-04-03T00:28:02;3.40;99.90
20750;DHT22;10535;50.664;4.564;2023-04-03T00:30:28;3.20;99.90
20750;DHT22;10535;50.664;4.564;2023-04-03T00:32:54;3.00;99.90
20750;DHT22;10535;50.664;4.564;2023-04-03T00:35:21;3.00;99.90
20750;DHT22;10535;50.664;4.564;2023-04-03T00:37:48;3.10;99.90
20750;DHT22;10535;50.664;4.564;2023-04-03T00:40:15;2.90;99.90
20750;DHT22;10535;50.664;4.564;2023-04-03T00:42:42;2.90;99.90
20750;DHT22;10535;50.664;4.564;2023-04-03T00:47:43;2.80;99.90
20750;DHT22;10535;50.664;4.564;2023-04-03T00:50:10;3.00;99.90
20750;DHT22;10535;50.664;4.564;2023-04-03T00:52:37;2.70;99.90
20750;DHT22;10535;50.664;4.564;2023-04-03T00:55:07;2.70;99.90
20750;DHT22;10535;50.664;4.564;2023-04-03T00:57:34;2.70;99.90
20750;DHT22;10535;50.664;4.564;2023-04-03T01:00:05;2.90;99.90
20750;DHT22;10535;50.664;4.564;2023-04-03T01:02:32;2.80;99.90
20750;DHT22;10535;50.664;4.564;2023-04-03T01:04:58;2.80;99.90
20750;DHT22;10535;50.664;4.564;2023-04-03T01:07:27;2.80;99.90
20750;DHT22;10535;50.664;4.564;2023-04-03T01:09:58;2.90;99.90
20750;DHT22;10535;50.664;4.564;2023-04-03T01:12:28;2.70;99.90
20750;DHT22;10535;50.664;4.564;2023-04-03T01:14:59;2.60;99.90
20750;DHT22;10535;50.664;4.564;2023-04-03T01:25:49;2.40;99.90
20750;DHT22;10535;50.664;4.564;2023-04-03T01:33:24;2.30;99.90
20750;DHT22;10535;50.664;4.564;2023-04-03T01:35:50;2.30;99.90
20750;DHT22;10535;50.664;4.564;2023-04-03T01:38:16;2.40;99.90
20750;DHT22;10535;50.664;4.564;2023-04-03T01:40:42;2.50;99.90
20750;DHT22;10535;50.664;4.564;2023-04-03T01:43:08;2.40;99.90
20750;DHT22;10535;50.664;4.564;2023-04-03T01:45:34;2.40;99.90
20750;DHT22;10535;50.664;4.564;2023-04-03T01:47:59;2.40;99.90
20750;DHT22;10535;50.664;4.564;2023-04-03T01:50:25;2.40;99.90
20750;DHT22;10535;50.664;4.564;2023-04-03T01:52:51;2.50;99.90
20750;DHT22;10535;50.664;4.564;2023-04-03T01:55:16;2.40;99.90
20750;DHT22;10535;50.664;4.564;2023-04-03T01:57:42;2.40;99.90
20750;DHT22;10535;50.664;4.564;2023-04-03T02:00:08;2.40;99.90
20750;DHT22;10535;50.664;4.564;2023-04-03T02:02:34;2.30;99.90
20750;DHT22;10535;50.664;4.564;2023-04-03T02:05:00;2.40;99.90
20750;DHT22;10535;50.664;4.564;2023-04-03T02:07:26;2.30;99.90
20750;DHT22;10535;50.664;4.564;2023-04-03T02:09:52;2.40;99.90
20750;DHT22;10535;50.664;4.564;2023-04-03T02:12:19;2.10;99.90
20750;DHT22;10535;50.664;4.564;2023-04-03T02:14:45;2.00;99.90
20750;DHT22;10535;50.664;4.564;2023-04-03T02:17:11;1.90;99.90
20750;DHT22;10535;50.664;4.564;2023-04-03T02:19:36;2.00;99.90
20750;DHT22;10535;50.664;4.564;2023-04-03T02:22:03;1.80;99.90
20750;DHT22;10535;50.664;4.564;2023-04-03T02:24:29;1.80;99.90
20750;DHT22;10535;50.664;4.564;2023-04-03T02:26:55;1.80;99.90
20750;DHT22;10535;50.664;4.564;2023-04-03T02:29:20;1.80;99.90
20750;DHT22;10535;50.664;4.564;2023-04-03T02:31:46;1.80;99.90
20750;DHT22;10535;50.664;4.564;2023-04-03T02:34:12;1.90;99.90
20750;DHT22;10535;50.664;4.564;2023-04-03T02:36:37;1.90;99.90
20750;DHT22;10535;50.664;4.564;2023-04-03T02:39:06;2.00;99.90
20750;DHT22;10535;50.664;4.564;2023-04-03T02:41:32;2.10;99.90
20750;DHT22;10535;50.664;4.564;2023-04-03T02:44:02;1.90;99.90
20750;DHT22;10535;50.664;4.564;2023-04-03T02:46:28;1.80;99.90
20750;DHT22;10535;50.664;4.564;2023-04-03T02:48:54;1.70;99.90
20750;DHT22;10535;50.664;4.564;2023-04-03T02:51:21;2.00;99.90
20750;DHT22;10535;50.664;4.564;2023-04-03T02:53:48;1.90;99.90
20750;DHT22;10535;50.664;4.564;2023-04-03T02:56:37;2.20;99.90
20750;DHT22;10535;50.664;4.564;2023-04-03T02:59:03;1.80;99.90
20750;DHT22;10535;50.664;4.564;2023-04-03T03:01:30;1.90;99.90
20750;DHT22;10535;50.664;4.564;2023-04-03T03:04:06;1.70;99.90
20750;DHT22;10535;50.664;4.564;2023-04-03T03:06:32;1.60;99.90
20750;DHT22;10535;50.664;4.564;2023-04-03T03:08:58;1.80;99.90
20750;DHT22;10535;50.664;4.564;2023-04-03T03:11:23;1.70;99.90
20750;DHT22;10535;50.664;4.564;2023-04-03T03:13:50;1.70;99.90
20750;DHT22;10535;50.664;4.564;2023-04-03T03:16:16;1.80;99.90
20750;DHT22;10535;50.664;4.564;2023-04-03T03:18:42;1.70;99.90
20750;DHT22;10535;50.664;4.564;2023-04-03T03:21:09;1.90;99.90
20750;DHT22;10535;50.664;4.564;2023-04-03T03:23:35;2.10;99.90
20750;DHT22;10535;50.664;4.564;2023-04-03T03:26:04;1.80;99.90
20750;DHT22;10535;50.664;4.564;2023-04-03T03:28:30;1.70;99.90
20750;DHT22;10535;50.664;4.564;2023-04-03T03:31:00;1.60;99.90
20750;DHT22;10535;50.664;4.564;2023-04-03T03:33:32;1.90;99.90
20750;DHT22;10535;50.664;4.564;2023-04-03T03:35:59;1.60;99.90
20750;DHT22;10535;50.664;4.564;2023-04-03T03:38:27;1.60;99.90
20750;DHT22;10535;50.664;4.564;2023-04-03T03:41:06;1.50;99.90
20750;DHT22;10535;50.664;4.564;2023-04-03T03:43:38;1.50;99.90
20750;DHT22;10535;50.664;4.564;2023-04-03T03:46:16;1.30;99.90
20750;DHT22;10535;50.664;4.564;2023-04-03T03:48:42;1.40;99.90
20750;DHT22;10535;50.664;4.564;2023-04-03T03:51:08;1.40;99.90
20750;DHT22;10535;50.664;4.564;2023-04-03T03:53:53;1.40;99.90
20750;DHT22;10535;50.664;4.564;2023-04-03T03:56:19;1.40;99.90
20750;DHT22;10535;50.664;4.564;2023-04-03T03:58:51;1.40;99.90
20750;DHT22;10535;50.664;4.564;2023-04-03T04:01:21;1.50;99.90
20750;DHT22;10535;50.664;4.564;2023-04-03T04:03:47;1.40;99.90
20750;DHT22;10535;50.664;4.564;2023-04-03T04:06:13;1.40;99.90
20750;DHT22;10535;50.664;4.564;2023-04-03T04:08:39;1.40;99.90
20750;DHT22;10535;50.664;4.564;2023-04-03T04:11:04;1.20;99.90
20750;DHT22;10535;50.664;4.564;2023-04-03T04:13:30;1.20;99.90
20750;DHT22;10535;50.664;4.564;2023-04-03T04:15:55;1.20;99.90
20750;DHT22;10535;50.664;4.564;2023-04-03T04:18:21;1.20;99.90
20750;DHT22;10535;50.664;4.564;2023-04-03T04:20:48;1.10;99.90
20750;DHT22;10535;50.664;4.564;2023-04-03T04:23:13;1.10;99.90
20750;DHT22;10535;50.664;4.564;2023-04-03T04:25:39;1.10;99.90
20750;DHT22;10535;50.664;4.564;2023-04-03T04:28:06;1.20;99.90
20750;DHT22;10535;50.664;4.564;2023-04-03T04:30:32;1.10;99.90
20750;DHT22;10535;50.664;4.564;2023-04-03T04:33:00;1.10;99.90
20750;DHT22;10535;50.664;4.564;2023-04-03T04:35:27;1.00;99.90
20750;DHT22;10535;50.664;4.564;2023-04-03T04:37:53;1.10;99.90
20750;DHT22;10535;50.664;4.564;2023-04-03T04:40:18;1.00;99.90
20750;DHT22;10535;50.664;4.564;2023-04-03T04:42:44;1.10;99.90
20750;DHT22;10535;50.664;4.564;2023-04-03T04:45:10;1.10;99.90
20750;DHT22;10535;50.664;4.564;2023-04-03T04:47:35;1.10;99.90
20750;DHT22;10535;50.664;4.564;2023-04-03T04:50:03;1.10;99.90
20750;DHT22;10535;50.664;4.564;2023-04-03T04:52:28;1.10;99.90
20750;DHT22;10535;50.664;4.564;2023-04-03T04:54:54;1.10;99.90
20750;DHT22;10535;50.664;4.564;2023-04-03T04:57:20;1.00;99.90
20750;DHT22;10535;50.664;4.564;2023-04-03T04:59:45;1.00;99.90
20750;DHT22;10535;50.664;4.564;2023-04-03T05:02:11;1.00;99.90
20750;DHT22;10535;50.664;4.564;2023-04-03T05:04:36;0.90;99.90
20750;DHT22;10535;50.664;4.564;2023-04-03T05:07:02;0.90;99.90
20750;DHT22;10535;50.664;4.564;2023-04-03T05:09:28;0.90;99.90
20750;DHT22;10535;50.664;4.564;2023-04-03T05:11:54;0.80;99.90
20750;DHT22;10535;50.664;4.564;2023-04-03T05:14:22;0.90;99.90
20750;DHT22;10535;50.664;4.564;2023-04-03T05:16:47;0.90;99.90
20750;DHT22;10535;50.664;4.564;2023-04-03T05:19:13;0.90;99.90
20750;DHT22;10535;50.664;4.564;2023-04-03T05:21:39;0.90;99.90
20750;DHT22;10535;50.664;4.564;2023-04-03T05:24:05;0.90;99.90
20750;DHT22;10535;50.664;4.564;2023-04-03T05:26:34;1.00;99.90
20750;DHT22;10535;50.664;4.564;2023-04-03T05:29:00;1.20;99.90
20750;DHT22;10535;50.664;4.564;2023-04-03T05:31:25;1.10;99.90
20750;DHT22;10535;50.664;4.564;2023-04-03T05:33:51;1.10;99.90
20750;DHT22;10535;50.664;4.564;2023-04-03T05:36:17;1.30;99.90
20750;DHT22;10535;50.664;4.564;2023-04-03T05:38:42;1.20;99.90
20750;DHT22;10535;50.664;4.564;2023-04-03T05:41:08;1.20;99.90
20750;DHT22;10535;50.664;4.564;2023-04-03T05:43:34;1.20;99.90
20750;DHT22;10535;50.664;4.564;2023-04-03T05:46:03;1.40;99.90
20750;DHT22;10535;50.664;4.564;2023-04-03T05:48:28;1.50;99.90
20750;DHT22;10535;50.664;4.564;2023-04-03T05:50:54;1.60;99.90
20750;DHT22;10535;50.664;4.564;2023-04-03T05:53:22;1.50;99.90
20750;DHT22;10535;50.664;4.564;2023-04-03T05:55:50;1.60;99.90
20750;DHT22;10535;50.664;4.564;2023-04-03T05:58:16;1.80;99.90
20750;DHT22;10535;50.664;4.564;2023-04-03T06:00:41;1.70;99.90
20750;DHT22;10535;50.664;4.564;2023-04-03T06:03:07;1.90;99.90
20750;DHT22;10535;50.664;4.564;2023-04-03T06:05:32;1.80;99.90
20750;DHT22;10535;50.664;4.564;2023-04-03T06:07:58;1.90;99.90
20750;DHT22;10535;50.664;4.564;2023-04-03T06:10:24;2.30;99.90
20750;DHT22;10535;50.664;4.564;2023-04-03T06:12:50;2.20;99.90
20750;DHT22;10535;50.664;4.564;2023-04-03T06:15:16;2.30;99.90
20750;DHT22;10535;50.664;4.564;2023-04-03T06:17:42;2.40;99.90
20750;DHT22;10535;50.664;4.564;2023-04-03T06:20:09;2.60;99.90
20750;DHT22;10535;50.664;4.564;2023-04-03T06:22:35;2.80;99.90
20750;DHT22;10535;50.664;4.564;2023-04-03T06:25:01;3.00;99.90
20750;DHT22;10535;50.664;4.564;2023-04-03T06:27:27;3.20;99.90
20750;DHT22;10535;50.664;4.564;2023-04-03T06:29:53;3.40;99.90
20750;DHT22;10535;50.664;4.564;2023-04-03T06:32:18;3.50;99.90
20750;DHT22;10535;50.664;4.564;2023-04-03T06:34:44;3.60;99.90
20750;DHT22;10535;50.664;4.564;2023-04-03T06:37:17;3.80;99.90
20750;DHT22;10535;50.664;4.564;2023-04-03T06:39:44;3.90;99.90
20750;DHT22;10535;50.664;4.564;2023-04-03T06:42:11;3.90;99.90
20750;DHT22;10535;50.664;4.564;2023-04-03T06:44:37;4.30;99.90
20750;DHT22;10535;50.664;4.564;2023-04-03T06:47:03;4.50;99.90
20750;DHT22;10535;50.664;4.564;2023-04-03T06:49:29;4.70;99.90
20750;DHT22;10535;50.664;4.564;2023-04-03T06:51:55;5.00;99.90
20750;DHT22;10535;50.664;4.564;2023-04-03T06:54:22;5.20;99.90
20750;DHT22;10535;50.664;4.564;2023-04-03T06:56:47;5.10;99.90
20750;DHT22;10535;50.664;4.564;2023-04-03T06:59:13;4.90;99.90
20750;DHT22;10535;50.664;4.564;2023-04-03T07:01:40;4.70;99.90
20750;DHT22;10535;50.664;4.564;2023-04-03T07:04:08;4.80;99.90
20750;DHT22;10535;50.664;4.564;2023-04-03T07:06:34;4.50;99.90
20750;DHT22;10535;50.664;4.564;2023-04-03T07:09:03;4.30;99.90
20750;DHT22;10535;50.664;4.564;2023-04-03T07:11:29;4.10;99.90
20750;DHT22;10535;50.664;4.564;2023-04-03T07:13:57;4.20;99.90
20750;DHT22;10535;50.664;4.564;2023-04-03T07:16:23;4.10;99.90
20750;DHT22;10535;50.664;4.564;2023-04-03T07:18:49;4.00;99.90
20750;DHT22;10535;50.664;4.564;2023-04-03T07:21:14;4.20;99.90
20750;DHT22;10535;50.664;4.564;2023-04-03T07:23:40;4.30;99.90
20750;DHT22;10535;50.664;4.564;2023-04-03T07:26:06;4.30;99.90
20750;DHT22;10535;50.664;4.564;2023-04-03T07:28:33;4.30;99.90
20750;DHT22;10535;50.664;4.564;2023-04-03T07:31:07;4.20;99.90
20750;DHT22;10535;50.664;4.564;2023-04-03T07:33:34;4.30;99.90
20750;DHT22;10535;50.664;4.564;2023-04-03T07:36:01;4.40;99.90
20750;DHT22;10535;50.664;4.564;2023-04-03T07:38:27;4.40;99.90
20750;DHT22;10535;50.664;4.564;2023-04-03T07:40:52;4.60;99.90
20750;DHT22;10535;50.664;4.564;2023-04-03T07:43:19;4.60;99.90
20750;DHT22;10535;50.664;4.564;2023-04-03T07:45:46;4.60;99.90
20750;DHT22;10535;50.664;4.564;2023-04-03T07:48:15;4.70;99.90
20750;DHT22;10535;50.664;4.564;2023-04-03T07:50:41;5.00;99.90
20750;DHT22;10535;50.664;4.564;2023-04-03T07:53:07;4.90;99.90
20750;DHT22;10535;50.664;4.564;2023-04-03T07:55:33;4.80;99.90
20750;DHT22;10535;50.664;4.564;2023-04-03T07:57:59;4.90;99.90
20750;DHT22;10535;50.664;4.564;2023-04-03T08:00:25;5.00;99.90
20750;DHT22;10535;50.664;4.564;2023-04-03T08:02:50;5.30;99.90
20750;DHT22;10535;50.664;4.564;2023-04-03T08:05:21;5.40;99.90
20750;DHT22;10535;50.664;4.564;2023-04-03T08:07:47;5.70;99.90
20750;DHT22;10535;50.664;4.564;2023-04-03T08:10:13;5.90;99.90
20750;DHT22;10535;50.664;4.564;2023-04-03T08:12:39;5.70;99.90
20750;DHT22;10535;50.664;4.564;2023-04-03T08:15:06;6.00;99.90
20750;DHT22;10535;50.664;4.564;2023-04-03T08:17:33;5.90;99.90
20750;DHT22;10535;50.664;4.564;2023-04-03T08:19:59;5.80;99.90
20750;DHT22;10535;50.664;4.564;2023-04-03T08:22:25;6.00;99.90
20750;DHT22;10535;50.664;4.564;2023-04-03T08:24:50;6.10;99.90
20750;DHT22;10535;50.664;4.564;2023-04-03T08:27:16;6.00;99.90
20750;DHT22;10535;50.664;4.564;2023-04-03T08:29:42;5.90;99.90
20750;DHT22;10535;50.664;4.564;2023-04-03T08:32:07;5.80;99.90
20750;DHT22;10535;50.664;4.564;2023-04-03T08:34:33;5.90;99.90
20750;DHT22;10535;50.664;4.564;2023-04-03T08:37:00;5.90;99.90
20750;DHT22;10535;50.664;4.564;2023-04-03T08:39:27;5.80;99.90
20750;DHT22;10535;50.664;4.564;2023-04-03T08:41:55;5.60;99.90
20750;DHT22;10535;50.664;4.564;2023-04-03T08:49:59;6.00;99.90
20750;DHT22;10535;50.664;4.564;2023-04-03T08:52:54;5.80;99.90
20750;DHT22;10535;50.664;4.564;2023-04-03T08:58:07;6.10;99.90
20750;DHT22;10535;50.664;4.564;2023-04-03T09:03:30;6.30;99.90
20750;DHT22;10535;50.664;4.564;2023-04-03T09:08:36;6.50;99.90
20750;DHT22;10535;50.664;4.564;2023-04-03T09:11:09;6.70;99.90
20750;DHT22;10535;50.664;4.564;2023-04-03T09:13:44;6.70;99.90
20750;DHT22;10535;50.664;4.564;2023-04-03T09:16:25;6.90;99.90
20750;DHT22;10535;50.664;4.564;2023-04-03T09:19:21;7.00;99.90
20750;DHT22;10535;50.664;4.564;2023-04-03T09:21:49;6.90;99.90
20750;DHT22;10535;50.664;4.564;2023-04-03T09:24:16;6.60;99.90
20750;DHT22;10535;50.664;4.564;2023-04-03T09:26:48;6.60;99.90
20750;DHT22;10535;50.664;4.564;2023-04-03T09:29:22;6.60;99.90
20750;DHT22;10535;50.664;4.564;2023-04-03T09:31:58;6.90;99.90
20750;DHT22;10535;50.664;4.564;2023-04-03T09:34:30;7.00;99.90
20750;DHT22;10535;50.664;4.564;2023-04-03T09:36:58;7.30;99.90
20750;DHT22;10535;50.664;4.564;2023-04-03T09:39:27;6.90;99.90
20750;DHT22;10535;50.664;4.564;2023-04-03T09:42:06;6.80;99.90
20750;DHT22;10535;50.664;4.564;2023-04-03T09:44:39;6.90;99.90
20750;DHT22;10535;50.664;4.564;2023-04-03T09:47:31;7.10;99.90
20750;DHT22;10535;50.664;4.564;2023-04-03T09:50:28;7.20;99.90
20750;DHT22;10535;50.664;4.564;2023-04-03T09:52:54;7.60;99.90
20750;DHT22;10535;50.664;4.564;2023-04-03T09:55:23;7.40;99.90
20750;DHT22;10535;50.664;4.564;2023-04-03T09:58:01;7.40;99.90
20750;DHT22;10535;50.664;4.564;2023-04-03T10:00:35;7.00;99.90
20750;DHT22;10535;50.664;4.564;2023-04-03T10:03:02;6.90;99.90
20750;DHT22;10535;50.664;4.564;2023-04-03T10:05:37;6.90;99.90
20750;DHT22;10535;50.664;4.564;2023-04-03T10:08:28;7.30;99.90
20750;DHT22;10535;50.664;4.564;2023-04-03T10:11:15;7.40;99.90
20750;DHT22;10535;50.664;4.564;2023-04-03T10:13:55;7.60;99.90
20750;DHT22;10535;50.664;4.564;2023-04-03T10:16:32;7.70;99.90
20750;DHT22;10535;50.664;4.564;2023-04-03T10:25:55;7.30;99.90
20750;DHT22;10535;50.664;4.564;2023-04-03T10:29:02;7.30;99.90
20750;DHT22;10535;50.664;4.564;2023-04-03T10:31:41;7.50;99.90
20750;DHT22;10535;50.664;4.564;2023-04-03T10:34:35;7.70;99.90
20750;DHT22;10535;50.664;4.564;2023-04-03T10:43:16;8.10;99.90
20750;DHT22;10535;50.664;4.564;2023-04-03T10:49:08;7.80;99.90
20750;DHT22;10535;50.664;4.564;2023-04-03T10:51:51;8.00;99.90
20750;DHT22;10535;50.664;4.564;2023-04-03T10:58:01;8.00;99.90
20750;DHT22;10535;50.664;4.564;2023-04-03T11:01:16;8.50;99.90
20750;DHT22;10535;50.664;4.564;2023-04-03T11:03:56;8.70;99.90
20750;DHT22;10535;50.664;4.564;2023-04-03T11:06:30;8.30;99.90
20750;DHT22;10535;50.664;4.564;2023-04-03T11:09:32;8.30;99.90
20750;DHT22;10535;50.664;4.564;2023-04-03T11:12:56;8.40;99.90
20750;DHT22;10535;50.664;4.564;2023-04-03T11:15:43;8.40;99.90
20750;DHT22;10535;50.664;4.564;2023-04-03T11:18:39;8.80;99.90
20750;DHT22;10535;50.664;4.564;2023-04-03T11:21:42;8.70;99.90
20750;DHT22;10535;50.664;4.564;2023-04-03T11:24:52;8.60;99.90
20750;DHT22;10535;50.664;4.564;2023-04-03T11:30:33;8.50;99.90
20750;DHT22;10535;50.664;4.564;2023-04-03T11:33:21;8.50;99.90
20750;DHT22;10535;50.664;4.564;2023-04-03T11:36:10;8.50;99.90
20750;DHT22;10535;50.664;4.564;2023-04-03T11:39:02;8.60;99.90
20750;DHT22;10535;50.664;4.564;2023-04-03T11:42:38;8.80;99.90
20750;DHT22;10535;50.664;4.564;2023-04-03T11:46:13;8.80;99.90
20750;DHT22;10535;50.664;4.564;2023-04-03T11:48:59;8.60;99.90
20750;DHT22;10535;50.664;4.564;2023-04-03T11:51:49;8.80;99.90
20750;DHT22;10535;50.664;4.564;2023-04-03T11:54:57;8.80;99.90
20750;DHT22;10535;50.664;4.564;2023-04-03T12:00:54;8.60;99.90
20750;DHT22;10535;50.664;4.564;2023-04-03T12:12:55;9.10;99.90
20750;DHT22;10535;50.664;4.564;2023-04-03T12:22:04;8.80;99.90
20750;DHT22;10535;50.664;4.564;2023-04-03T12:24:54;9.20;99.90
20750;DHT22;10535;50.664;4.564;2023-04-03T12:27:47;9.40;99.90
20750;DHT22;10535;50.664;4.564;2023-04-03T12:30:26;9.30;99.90
20750;DHT22;10535;50.664;4.564;2023-04-03T12:36:51;9.30;99.90
20750;DHT22;10535;50.664;4.564;2023-04-03T12:39:45;9.00;99.90
20750;DHT22;10535;50.664;4.564;2023-04-03T12:42:42;9.30;99.90
20750;DHT22;10535;50.664;4.564;2023-04-03T12:48:30;9.30;99.90
20750;DHT22;10535;50.664;4.564;2023-04-03T12:51:40;9.30;99.90
20750;DHT22;10535;50.664;4.564;2023-04-03T12:54:37;9.10;99.90
20750;DHT22;10535;50.664;4.564;2023-04-03T12:57:42;9.40;99.90
20750;DHT22;10535;50.664;4.564;2023-04-03T13:03:06;9.10;99.90
20750;DHT22;10535;50.664;4.564;2023-04-03T13:06:01;8.90;99.90
20750;DHT22;10535;50.664;4.564;2023-04-03T13:09:19;9.10;99.90
20750;DHT22;10535;50.664;4.564;2023-04-03T13:12:13;9.00;99.90
20750;DHT22;10535;50.664;4.564;2023-04-03T13:14:56;9.10;99.90
20750;DHT22;10535;50.664;4.564;2023-04-03T13:17:39;9.30;99.90
20750;DHT22;10535;50.664;4.564;2023-04-03T13:20:34;9.30;99.90
20750;DHT22;10535;50.664;4.564;2023-04-03T13:23:27;9.40;99.90
20750;DHT22;10535;50.664;4.564;2023-04-03T13:26:30;9.50;99.90
20750;DHT22;10535;50.664;4.564;2023-04-03T13:29:37;9.20;99.90
20750;DHT22;10535;50.664;4.564;2023-04-03T13:32:26;9.30;99.90
20750;DHT22;10535;50.664;4.564;2023-04-03T13:34:54;9.30;99.90
20750;DHT22;10535;50.664;4.564;2023-04-03T13:37:31;9.30;99.90
20750;DHT22;10535;50.664;4.564;2023-04-03T13:42:41;9.40;99.90
20750;DHT22;10535;50.664;4.564;2023-04-03T13:45:18;9.50;99.90
20750;DHT22;10535;50.664;4.564;2023-04-03T13:47:47;9.50;99.90
20750;DHT22;10535;50.664;4.564;2023-04-03T13:50:53;9.70;99.90
20750;DHT22;10535;50.664;4.564;2023-04-03T13:54:10;9.50;99.90
20750;DHT22;10535;50.664;4.564;2023-04-03T13:56:44;9.40;99.90
20750;DHT22;10535;50.664;4.564;2023-04-03T14:00:19;9.30;99.90
20750;DHT22;10535;50.664;4.564;2023-04-03T14:03:29;9.30;99.90
20750;DHT22;10535;50.664;4.564;2023-04-03T14:06:34;9.50;99.90
20750;DHT22;10535;50.664;4.564;2023-04-03T14:09:37;9.40;99.90
20750;DHT22;10535;50.664;4.564;2023-04-03T14:12:25;9.50;99.90
20750;DHT22;10535;50.664;4.564;2023-04-03T14:15:32;9.80;99.90
20750;DHT22;10535;50.664;4.564;2023-04-03T14:18:37;9.80;99.90
20750;DHT22;10535;50.664;4.564;2023-04-03T14:21:05;9.70;99.90
20750;DHT22;10535;50.664;4.564;2023-04-03T14:24:04;9.80;99.90
20750;DHT22;10535;50.664;4.564;2023-04-03T14:26:34;9.80;99.90
20750;DHT22;10535;50.664;4.564;2023-04-03T14:29:27;9.90;99.90
20750;DHT22;10535;50.664;4.564;2023-04-03T14:32:01;9.80;99.90
20750;DHT22;10535;50.664;4.564;2023-04-03T14:34:29;9.80;99.90
20750;DHT22;10535;50.664;4.564;2023-04-03T14:36:58;9.80;99.90
20750;DHT22;10535;50.664;4.564;2023-04-03T14:40:18;9.90;99.90
20750;DHT22;10535;50.664;4.564;2023-04-03T14:43:36;9.70;99.90
20750;DHT22;10535;50.664;4.564;2023-04-03T14:46:36;9.70;99.90
20750;DHT22;10535;50.664;4.564;2023-04-03T14:52:59;9.80;99.90
20750;DHT22;10535;50.664;4.564;2023-04-03T14:55:48;9.50;99.90
20750;DHT22;10535;50.664;4.564;2023-04-03T14:58:34;9.50;99.90
20750;DHT22;10535;50.664;4.564;2023-04-03T15:02:08;9.50;99.90
20750;DHT22;10535;50.664;4.564;2023-04-03T15:05:34;9.50;99.90
20750;DHT22;10535;50.664;4.564;2023-04-03T15:08:21;9.40;99.90
20750;DHT22;10535;50.664;4.564;2023-04-03T15:11:09;9.50;99.90
20750;DHT22;10535;50.664;4.564;2023-04-03T15:14:19;9.50;99.90
20750;DHT22;10535;50.664;4.564;2023-04-03T15:16:48;9.50;99.90
20750;DHT22;10535;50.664;4.564;2023-04-03T15:19:23;9.40;99.90
20750;DHT22;10535;50.664;4.564;2023-04-03T15:22:28;9.40;99.90
20750;DHT22;10535;50.664;4.564;2023-04-03T15:25:25;9.50;99.90
20750;DHT22;10535;50.664;4.564;2023-04-03T15:27:52;9.60;99.90
20750;DHT22;10535;50.664;4.564;2023-04-03T15:30:29;9.50;99.90
20750;DHT22;10535;50.664;4.564;2023-04-03T15:33:15;9.50;99.90
20750;DHT22;10535;50.664;4.564;2023-04-03T15:36:07;9.30;99.90
20750;DHT22;10535;50.664;4.564;2023-04-03T15:39:13;9.40;99.90
20750;DHT22;10535;50.664;4.564;2023-04-03T15:45:18;9.60;99.90
20750;DHT22;10535;50.664;4.564;2023-04-03T15:48:07;9.60;99.90
20750;DHT22;10535;50.664;4.564;2023-04-03T15:53:20;9.40;99.90
20750;DHT22;10535;50.664;4.564;2023-04-03T15:55:52;9.40;99.90
20750;DHT22;10535;50.664;4.564;2023-04-03T15:58:22;9.40;99.90
20750;DHT22;10535;50.664;4.564;2023-04-03T16:00:52;9.40;99.90
20750;DHT22;10535;50.664;4.564;2023-04-03T16:03:41;9.50;99.90
20750;DHT22;10535;50.664;4.564;2023-04-03T16:09:32;9.50;99.90
20750;DHT22;10535;50.664;4.564;2023-04-03T16:12:00;9.50;99.90
20750;DHT22;10535;50.664;4.564;2023-04-03T16:14:29;9.40;99.90
20750;DHT22;10535;50.664;4.564;2023-04-03T16:16:58;9.40;99.90
20750;DHT22;10535;50.664;4.564;2023-04-03T16:19:24;9.50;99.90
20750;DHT22;10535;50.664;4.564;2023-04-03T16:21:50;9.50;99.90
20750;DHT22;10535;50.664;4.564;2023-04-03T16:24:20;9.50;99.90
20750;DHT22;10535;50.664;4.564;2023-04-03T16:26:47;9.50;99.90
20750;DHT22;10535;50.664;4.564;2023-04-03T16:29:13;9.60;99.90
20750;DHT22;10535;50.664;4.564;2023-04-03T16:31:41;9.60;99.90
20750;DHT22;10535;50.664;4.564;2023-04-03T16:34:09;9.50;99.90
20750;DHT22;10535;50.664;4.564;2023-04-03T16:36:36;9.50;99.90
20750;DHT22;10535;50.664;4.564;2023-04-03T16:39:03;9.50;99.90
20750;DHT22;10535;50.664;4.564;2023-04-03T16:41:28;9.50;99.90
20750;DHT22;10535;50.664;4.564;2023-04-03T16:43:54;9.30;99.90
20750;DHT22;10535;50.664;4.564;2023-04-03T16:46:21;9.30;99.90
20750;DHT22;10535;50.664;4.564;2023-04-03T16:48:47;9.30;99.90
20750;DHT22;10535;50.664;4.564;2023-04-03T16:51:13;9.50;99.90
20750;DHT22;10535;50.664;4.564;2023-04-03T16:56:30;9.30;99.90
20750;DHT22;10535;50.664;4.564;2023-04-03T16:58:59;9.20;99.90
20750;DHT22;10535;50.664;4.564;2023-04-03T17:01:33;9.20;99.90
20750;DHT22;10535;50.664;4.564;2023-04-03T17:04:01;9.10;99.90
20750;DHT22;10535;50.664;4.564;2023-04-03T17:06:31;9.00;99.90
20750;DHT22;10535;50.664;4.564;2023-04-03T17:08:57;9.00;99.90
20750;DHT22;10535;50.664;4.564;2023-04-03T17:11:28;8.90;99.90
20750;DHT22;10535;50.664;4.564;2023-04-03T17:13:59;9.00;99.90
20750;DHT22;10535;50.664;4.564;2023-04-03T17:16:30;9.00;99.90
20750;DHT22;10535;50.664;4.564;2023-04-03T17:19:19;8.90;99.90
20750;DHT22;10535;50.664;4.564;2023-04-03T17:21:45;8.90;99.90
20750;DHT22;10535;50.664;4.564;2023-04-03T17:24:12;8.90;99.90
20750;DHT22;10535;50.664;4.564;2023-04-03T17:26:42;8.90;99.90
20750;DHT22;10535;50.664;4.564;2023-04-03T17:29:09;8.90;99.90
20750;DHT22;10535;50.664;4.564;2023-04-03T17:31:36;8.90;99.90
20750;DHT22;10535;50.664;4.564;2023-04-03T17:34:07;8.70;99.90
20750;DHT22;10535;50.664;4.564;2023-04-03T17:37:09;8.90;99.90
20750;DHT22;10535;50.664;4.564;2023-04-03T17:40:24;8.60;99.90
20750;DHT22;10535;50.664;4.564;2023-04-03T17:42:59;8.70;99.90
20750;DHT22;10535;50.664;4.564;2023-04-03T17:48:00;8.60;99.90
20750;DHT22;10535;50.664;4.564;2023-04-03T17:50:26;8.60;99.90
20750;DHT22;10535;50.664;4.564;2023-04-03T17:52:57;8.60;99.90
20750;DHT22;10535;50.664;4.564;2023-04-03T17:55:24;8.60;99.90
20750;DHT22;10535;50.664;4.564;2023-04-03T17:57:59;8.50;99.90
20750;DHT22;10535;50.664;4.564;2023-04-03T18:00:30;8.30;99.90
20750;DHT22;10535;50.664;4.564;2023-04-03T18:02:56;8.20;99.90
20750;DHT22;10535;50.664;4.564;2023-04-03T18:05:29;8.20;99.90
20750;DHT22;10535;50.664;4.564;2023-04-03T18:07:56;8.20;99.90
20750;DHT22;10535;50.664;4.564;2023-04-03T18:10:23;8.00;99.90
20750;DHT22;10535;50.664;4.564;2023-04-03T18:12:51;8.00;99.90